sensor_id;sensor_type;location;lat;lon;timestamp;P1;durP1;ratioP1;P2;durP2;ratioP2
10761;SDS011;5433;50.862;4.320;2023-05-19T00:01:27;8.80;;;5.28;;
10761;SDS011;5433;50.862;4.320;2023-05-19T00:03:54;11.90;;;5.70;;
10761;SDS011;5433;50.862;4.320;2023-05-19T00:06:23;7.80;;;5.38;;
10761;SDS011;5433;50.862;4.320;2023-05-19T00:08:55;9.27;;;5.40;;
10761;SDS011;5433;50.862;4.320;2023-05-19T00:11:22;8.50;;;5.45;;
10761;SDS011;5433;50.862;4.320;2023-05-19T00:13:49;7.45;;;5.07;;
10761;SDS011;5433;50.862;4.320;2023-05-19T00:16:26;8.13;;;5.30;;
10761;SDS011;5433;50.862;4.320;2023-05-19T00:18:52;9.25;;;5.65;;
10761;SDS011;5433;50.862;4.320;2023-05-19T00:21:19;7.53;;;5.55;;
10761;SDS011;5433;50.862;4.320;2023-05-19T00:23:45;12.27;;;6.40;;
10761;SDS011;5433;50.862;4.320;2023-05-19T00:26:11;8.75;;;5.38;;
10761;SDS011;5433;50.862;4.320;2023-05-19T00:28:37;9.32;;;5.78;;
10761;SDS011;5433;50.862;4.320;2023-05-19T00:31:03;7.93;;;5.90;;
10761;SDS011;5433;50.862;4.320;2023-05-19T00:33:30;9.00;;;6.20;;
10761;SDS011;5433;50.862;4.320;2023-05-19T00:35:57;7.50;;;5.75;;
10761;SDS011;5433;50.862;4.320;2023-05-19T00:38:23;11.60;;;6.63;;
10761;SDS011;5433;50.862;4.320;2023-05-19T00:40:50;11.60;;;6.32;;
10761;SDS011;5433;50.862;4.320;2023-05-19T00:43:16;8.73;;;6.00;;
10761;SDS011;5433;50.862;4.320;2023-05-19T00:45:42;10.93;;;6.43;;
10761;SDS011;5433;50.862;4.320;2023-05-19T00:48:08;8.75;;;6.47;;
10761;SDS011;5433;50.862;4.320;2023-05-19T00:50:34;8.52;;;6.10;;
10761;SDS011;5433;50.862;4.320;2023-05-19T00:53:00;12.82;;;6.53;;
10761;SDS011;5433;50.862;4.320;2023-05-19T00:55:27;11.27;;;6.55;;
10761;SDS011;5433;50.862;4.320;2023-05-19T00:57:54;10.32;;;6.55;;
10761;SDS011;5433;50.862;4.320;2023-05-19T01:00:20;10.20;;;6.55;;
10761;SDS011;5433;50.862;4.320;2023-05-19T01:02:47;13.52;;;6.25;;
10761;SDS011;5433;50.862;4.320;2023-05-19T01:05:14;9.10;;;6.28;;
10761;SDS011;5433;50.862;4.320;2023-05-19T01:07:41;9.65;;;6.05;;
10761;SDS011;5433;50.862;4.320;2023-05-19T01:13:10;9.80;;;6.75;;
10761;SDS011;5433;50.862;4.320;2023-05-19T01:18:37;9.88;;;6.50;;
10761;SDS011;5433;50.862;4.320;2023-05-19T01:31:33;10.70;;;6.88;;
10761;SDS011;5433;50.862;4.320;2023-05-19T01:34:00;9.73;;;6.50;;
10761;SDS011;5433;50.862;4.320;2023-05-19T01:36:28;10.40;;;6.88;;
10761;SDS011;5433;50.862;4.320;2023-05-19T01:38:56;11.93;;;7.32;;
10761;SDS011;5433;50.862;4.320;2023-05-19T01:41:23;11.38;;;6.85;;
10761;SDS011;5433;50.862;4.320;2023-05-19T01:43:49;9.05;;;6.65;;
10761;SDS011;5433;50.862;4.320;2023-05-19T01:46:16;12.20;;;7.28;;
10761;SDS011;5433;50.862;4.320;2023-05-19T01:48:42;11.05;;;6.57;;
10761;SDS011;5433;50.862;4.320;2023-05-19T01:51:09;13.15;;;6.95;;
10761;SDS011;5433;50.862;4.320;2023-05-19T01:53:35;9.98;;;6.97;;
10761;SDS011;5433;50.862;4.320;2023-05-19T01:56:01;11.68;;;7.05;;
10761;SDS011;5433;50.862;4.320;2023-05-19T01:58:44;10.02;;;6.97;;
10761;SDS011;5433;50.862;4.320;2023-05-19T02:11:17;11.10;;;6.72;;
10761;SDS011;5433;50.862;4.320;2023-05-19T02:13:45;8.80;;;6.07;;
10761;SDS011;5433;50.862;4.320;2023-05-19T02:16:13;10.40;;;6.75;;
10761;SDS011;5433;50.862;4.320;2023-05-19T02:18:41;13.02;;;7.45;;
10761;SDS011;5433;50.862;4.320;2023-05-19T02:21:09;12.77;;;7.40;;
10761;SDS011;5433;50.862;4.320;2023-05-19T02:23:37;12.00;;;7.10;;
10761;SDS011;5433;50.862;4.320;2023-05-19T02:26:03;11.88;;;7.45;;
10761;SDS011;5433;50.862;4.320;2023-05-19T02:28:29;11.73;;;7.53;;
10761;SDS011;5433;50.862;4.320;2023-05-19T02:30:55;12.20;;;7.50;;
10761;SDS011;5433;50.862;4.320;2023-05-19T02:33:21;12.77;;;8.05;;
10761;SDS011;5433;50.862;4.320;2023-05-19T02:35:50;11.45;;;7.00;;
10761;SDS011;5433;50.862;4.320;2023-05-19T02:38:16;11.45;;;7.25;;
10761;SDS011;5433;50.862;4.320;2023-05-19T02:40:42;8.90;;;7.30;;
10761;SDS011;5433;50.862;4.320;2023-05-19T02:43:08;9.13;;;7.00;;
10761;SDS011;5433;50.862;4.320;2023-05-19T02:45:34;11.23;;;7.60;;
10761;SDS011;5433;50.862;4.320;2023-05-19T02:48:00;12.98;;;8.00;;
10761;SDS011;5433;50.862;4.320;2023-05-19T02:50:26;9.68;;;7.63;;
10761;SDS011;5433;50.862;4.320;2023-05-19T02:52:52;9.75;;;7.47;;
10761;SDS011;5433;50.862;4.320;2023-05-19T02:55:18;10.43;;;7.35;;
10761;SDS011;5433;50.862;4.320;2023-05-19T02:57:44;10.00;;;7.63;;
10761;SDS011;5433;50.862;4.320;2023-05-19T03:00:10;12.98;;;7.50;;
10761;SDS011;5433;50.862;4.320;2023-05-19T03:02:37;11.45;;;7.38;;
10761;SDS011;5433;50.862;4.320;2023-05-19T03:05:03;10.85;;;7.78;;
10761;SDS011;5433;50.862;4.320;2023-05-19T03:07:29;13.27;;;7.75;;
10761;SDS011;5433;50.862;4.320;2023-05-19T03:09:57;10.65;;;7.43;;
10761;SDS011;5433;50.862;4.320;2023-05-19T03:12:24;10.15;;;7.72;;
10761;SDS011;5433;50.862;4.320;2023-05-19T03:14:50;10.18;;;8.02;;
10761;SDS011;5433;50.862;4.320;2023-05-19T03:17:16;8.82;;;7.72;;
10761;SDS011;5433;50.862;4.320;2023-05-19T03:19:42;10.30;;;7.32;;
10761;SDS011;5433;50.862;4.320;2023-05-19T03:22:08;14.13;;;7.80;;
10761;SDS011;5433;50.862;4.320;2023-05-19T03:24:34;8.10;;;7.22;;
10761;SDS011;5433;50.862;4.320;2023-05-19T03:27:00;12.07;;;7.72;;
10761;SDS011;5433;50.862;4.320;2023-05-19T03:29:26;11.18;;;7.55;;
10761;SDS011;5433;50.862;4.320;2023-05-19T03:32:13;11.30;;;7.85;;
10761;SDS011;5433;50.862;4.320;2023-05-19T03:34:57;10.68;;;7.72;;
10761;SDS011;5433;50.862;4.320;2023-05-19T03:37:23;12.98;;;8.32;;
10761;SDS011;5433;50.862;4.320;2023-05-19T03:39:49;11.48;;;8.05;;
10761;SDS011;5433;50.862;4.320;2023-05-19T03:42:15;11.23;;;8.13;;
10761;SDS011;5433;50.862;4.320;2023-05-19T03:44:41;11.93;;;8.50;;
10761;SDS011;5433;50.862;4.320;2023-05-19T03:47:08;10.95;;;7.93;;
10761;SDS011;5433;50.862;4.320;2023-05-19T03:49:35;12.32;;;7.95;;
10761;SDS011;5433;50.862;4.320;2023-05-19T03:52:01;12.55;;;8.05;;
10761;SDS011;5433;50.862;4.320;2023-05-19T03:54:27;12.43;;;8.93;;
10761;SDS011;5433;50.862;4.320;2023-05-19T03:56:53;12.07;;;8.10;;
10761;SDS011;5433;50.862;4.320;2023-05-19T03:59:19;11.77;;;7.90;;
10761;SDS011;5433;50.862;4.320;2023-05-19T04:05:09;11.82;;;8.23;;
10761;SDS011;5433;50.862;4.320;2023-05-19T04:07:35;13.40;;;7.53;;
10761;SDS011;5433;50.862;4.320;2023-05-19T04:10:05;13.13;;;8.40;;
10761;SDS011;5433;50.862;4.320;2023-05-19T04:12:31;14.07;;;8.25;;
10761;SDS011;5433;50.862;4.320;2023-05-19T04:14:57;11.80;;;8.52;;
10761;SDS011;5433;50.862;4.320;2023-05-19T04:17:23;11.13;;;8.43;;
10761;SDS011;5433;50.862;4.320;2023-05-19T04:19:50;11.55;;;8.23;;
10761;SDS011;5433;50.862;4.320;2023-05-19T04:22:16;13.15;;;8.23;;
10761;SDS011;5433;50.862;4.320;2023-05-19T04:24:42;11.93;;;8.85;;
10761;SDS011;5433;50.862;4.320;2023-05-19T04:27:10;12.82;;;9.20;;
10761;SDS011;5433;50.862;4.320;2023-05-19T04:29:37;14.13;;;8.68;;
10761;SDS011;5433;50.862;4.320;2023-05-19T04:32:04;11.05;;;8.88;;
10761;SDS011;5433;50.862;4.320;2023-05-19T04:34:31;11.63;;;8.68;;
10761;SDS011;5433;50.862;4.320;2023-05-19T04:36:57;13.18;;;8.88;;
10761;SDS011;5433;50.862;4.320;2023-05-19T04:39:23;11.38;;;8.68;;
10761;SDS011;5433;50.862;4.320;2023-05-19T04:41:49;16.08;;;9.07;;
10761;SDS011;5433;50.862;4.320;2023-05-19T04:44:18;12.43;;;8.57;;
10761;SDS011;5433;50.862;4.320;2023-05-19T04:46:44;12.65;;;8.57;;
10761;SDS011;5433;50.862;4.320;2023-05-19T04:49:10;12.57;;;8.75;;
10761;SDS011;5433;50.862;4.320;2023-05-19T04:51:36;12.20;;;8.23;;
10761;SDS011;5433;50.862;4.320;2023-05-19T04:54:05;11.23;;;7.45;;
10761;SDS011;5433;50.862;4.320;2023-05-19T04:56:31;12.02;;;8.63;;
10761;SDS011;5433;50.862;4.320;2023-05-19T04:59:10;13.20;;;8.73;;
10761;SDS011;5433;50.862;4.320;2023-05-19T05:01:37;13.00;;;7.50;;
10761;SDS011;5433;50.862;4.320;2023-05-19T05:04:04;10.15;;;8.00;;
10761;SDS011;5433;50.862;4.320;2023-05-19T05:06:30;11.82;;;7.60;;
10761;SDS011;5433;50.862;4.320;2023-05-19T05:08:56;12.27;;;8.35;;
10761;SDS011;5433;50.862;4.320;2023-05-19T05:11:24;10.98;;;8.32;;
10761;SDS011;5433;50.862;4.320;2023-05-19T05:13:50;13.23;;;9.02;;
10761;SDS011;5433;50.862;4.320;2023-05-19T05:16:16;11.07;;;8.75;;
10761;SDS011;5433;50.862;4.320;2023-05-19T05:18:42;12.13;;;9.00;;
10761;SDS011;5433;50.862;4.320;2023-05-19T05:21:08;12.35;;;8.43;;
10761;SDS011;5433;50.862;4.320;2023-05-19T05:23:35;12.35;;;9.02;;
10761;SDS011;5433;50.862;4.320;2023-05-19T05:26:08;12.93;;;8.45;;
10761;SDS011;5433;50.862;4.320;2023-05-19T05:28:35;14.88;;;8.65;;
10761;SDS011;5433;50.862;4.320;2023-05-19T05:31:01;14.30;;;8.68;;
10761;SDS011;5433;50.862;4.320;2023-05-19T05:33:27;14.18;;;8.65;;
10761;SDS011;5433;50.862;4.320;2023-05-19T05:35:53;13.27;;;9.10;;
10761;SDS011;5433;50.862;4.320;2023-05-19T05:38:19;14.93;;;8.70;;
10761;SDS011;5433;50.862;4.320;2023-05-19T05:43:21;12.20;;;9.05;;
10761;SDS011;5433;50.862;4.320;2023-05-19T05:45:47;16.00;;;9.45;;
10761;SDS011;5433;50.862;4.320;2023-05-19T05:48:13;12.30;;;8.50;;
10761;SDS011;5433;50.862;4.320;2023-05-19T05:50:41;13.80;;;8.77;;
10761;SDS011;5433;50.862;4.320;2023-05-19T05:53:08;13.80;;;8.70;;
10761;SDS011;5433;50.862;4.320;2023-05-19T05:55:34;12.30;;;8.25;;
10761;SDS011;5433;50.862;4.320;2023-05-19T05:58:00;12.68;;;8.57;;
10761;SDS011;5433;50.862;4.320;2023-05-19T06:00:27;13.32;;;8.88;;
10761;SDS011;5433;50.862;4.320;2023-05-19T06:02:53;14.63;;;8.80;;
10761;SDS011;5433;50.862;4.320;2023-05-19T06:05:21;15.07;;;9.68;;
10761;SDS011;5433;50.862;4.320;2023-05-19T06:07:47;13.60;;;9.75;;
10761;SDS011;5433;50.862;4.320;2023-05-19T06:10:13;15.45;;;9.32;;
10761;SDS011;5433;50.862;4.320;2023-05-19T06:12:39;15.45;;;9.35;;
10761;SDS011;5433;50.862;4.320;2023-05-19T06:15:07;11.68;;;7.88;;
10761;SDS011;5433;50.862;4.320;2023-05-19T06:17:33;14.25;;;9.25;;
10761;SDS011;5433;50.862;4.320;2023-05-19T06:20:00;15.07;;;9.02;;
10761;SDS011;5433;50.862;4.320;2023-05-19T06:22:26;15.75;;;9.45;;
10761;SDS011;5433;50.862;4.320;2023-05-19T06:24:52;14.95;;;9.18;;
10761;SDS011;5433;50.862;4.320;2023-05-19T06:27:18;18.13;;;9.93;;
10761;SDS011;5433;50.862;4.320;2023-05-19T06:29:44;15.20;;;9.30;;
10761;SDS011;5433;50.862;4.320;2023-05-19T06:32:10;13.55;;;9.18;;
10761;SDS011;5433;50.862;4.320;2023-05-19T06:34:37;15.88;;;9.23;;
10761;SDS011;5433;50.862;4.320;2023-05-19T06:37:04;12.35;;;9.15;;
10761;SDS011;5433;50.862;4.320;2023-05-19T06:39:30;12.02;;;9.18;;
10761;SDS011;5433;50.862;4.320;2023-05-19T06:41:56;15.15;;;9.75;;
10761;SDS011;5433;50.862;4.320;2023-05-19T06:44:23;14.82;;;9.20;;
10761;SDS011;5433;50.862;4.320;2023-05-19T06:46:49;13.38;;;8.65;;
10761;SDS011;5433;50.862;4.320;2023-05-19T06:49:15;13.38;;;9.00;;
10761;SDS011;5433;50.862;4.320;2023-05-19T06:51:41;13.02;;;9.68;;
10761;SDS011;5433;50.862;4.320;2023-05-19T06:54:07;13.75;;;9.77;;
10761;SDS011;5433;50.862;4.320;2023-05-19T06:56:35;16.23;;;8.93;;
10761;SDS011;5433;50.862;4.320;2023-05-19T06:59:01;13.35;;;9.13;;
10761;SDS011;5433;50.862;4.320;2023-05-19T07:01:27;14.10;;;8.63;;
10761;SDS011;5433;50.862;4.320;2023-05-19T07:03:54;11.52;;;7.82;;
10761;SDS011;5433;50.862;4.320;2023-05-19T07:06:20;11.85;;;8.90;;
10761;SDS011;5433;50.862;4.320;2023-05-19T07:08:46;12.50;;;9.15;;
10761;SDS011;5433;50.862;4.320;2023-05-19T07:11:12;10.27;;;8.35;;
10761;SDS011;5433;50.862;4.320;2023-05-19T07:13:38;14.20;;;8.65;;
10761;SDS011;5433;50.862;4.320;2023-05-19T07:16:04;13.27;;;9.15;;
10761;SDS011;5433;50.862;4.320;2023-05-19T07:18:30;14.05;;;9.40;;
10761;SDS011;5433;50.862;4.320;2023-05-19T07:20:56;10.38;;;8.13;;
10761;SDS011;5433;50.862;4.320;2023-05-19T07:23:23;12.13;;;8.38;;
10761;SDS011;5433;50.862;4.320;2023-05-19T07:25:52;11.75;;;8.07;;
10761;SDS011;5433;50.862;4.320;2023-05-19T07:28:18;12.02;;;8.60;;
10761;SDS011;5433;50.862;4.320;2023-05-19T07:30:45;13.45;;;8.60;;
10761;SDS011;5433;50.862;4.320;2023-05-19T07:33:11;11.32;;;8.07;;
10761;SDS011;5433;50.862;4.320;2023-05-19T07:35:37;11.95;;;8.38;;
10761;SDS011;5433;50.862;4.320;2023-05-19T07:38:04;10.35;;;7.65;;
10761;SDS011;5433;50.862;4.320;2023-05-19T07:40:31;11.30;;;8.40;;
10761;SDS011;5433;50.862;4.320;2023-05-19T07:42:57;12.18;;;7.75;;
10761;SDS011;5433;50.862;4.320;2023-05-19T07:45:23;13.70;;;8.18;;
10761;SDS011;5433;50.862;4.320;2023-05-19T07:47:49;13.48;;;8.48;;
10761;SDS011;5433;50.862;4.320;2023-05-19T07:50:16;13.25;;;7.80;;
10761;SDS011;5433;50.862;4.320;2023-05-19T07:52:42;10.93;;;8.20;;
10761;SDS011;5433;50.862;4.320;2023-05-19T07:55:08;13.80;;;8.60;;
10761;SDS011;5433;50.862;4.320;2023-05-19T07:57:35;10.40;;;8.27;;
10761;SDS011;5433;50.862;4.320;2023-05-19T08:00:01;12.43;;;8.00;;
10761;SDS011;5433;50.862;4.320;2023-05-19T08:02:31;10.30;;;8.25;;
10761;SDS011;5433;50.862;4.320;2023-05-19T08:04:57;10.70;;;7.85;;
10761;SDS011;5433;50.862;4.320;2023-05-19T08:07:23;13.07;;;7.35;;
10761;SDS011;5433;50.862;4.320;2023-05-19T08:09:50;10.40;;;7.25;;
10761;SDS011;5433;50.862;4.320;2023-05-19T08:12:16;11.88;;;7.65;;
10761;SDS011;5433;50.862;4.320;2023-05-19T08:14:42;13.32;;;8.13;;
10761;SDS011;5433;50.862;4.320;2023-05-19T08:17:10;11.95;;;7.68;;
10761;SDS011;5433;50.862;4.320;2023-05-19T08:19:36;11.48;;;7.07;;
10761;SDS011;5433;50.862;4.320;2023-05-19T08:22:02;11.43;;;7.10;;
10761;SDS011;5433;50.862;4.320;2023-05-19T08:24:28;9.35;;;7.10;;
10761;SDS011;5433;50.862;4.320;2023-05-19T08:26:54;12.05;;;7.00;;
10761;SDS011;5433;50.862;4.320;2023-05-19T08:29:20;12.18;;;7.72;;
10761;SDS011;5433;50.862;4.320;2023-05-19T08:31:46;12.20;;;6.53;;
10761;SDS011;5433;50.862;4.320;2023-05-19T08:34:12;9.32;;;5.80;;
10761;SDS011;5433;50.862;4.320;2023-05-19T08:36:38;7.65;;;5.93;;
10761;SDS011;5433;50.862;4.320;2023-05-19T08:39:05;8.32;;;5.50;;
10761;SDS011;5433;50.862;4.320;2023-05-19T08:41:32;8.90;;;5.80;;
10761;SDS011;5433;50.862;4.320;2023-05-19T08:43:58;9.73;;;5.72;;
10761;SDS011;5433;50.862;4.320;2023-05-19T08:46:24;9.18;;;5.75;;
10761;SDS011;5433;50.862;4.320;2023-05-19T08:48:53;10.73;;;6.47;;
10761;SDS011;5433;50.862;4.320;2023-05-19T08:51:25;7.38;;;4.93;;
10761;SDS011;5433;50.862;4.320;2023-05-19T08:53:52;8.02;;;4.40;;
10761;SDS011;5433;50.862;4.320;2023-05-19T08:56:22;10.30;;;4.50;;
10761;SDS011;5433;50.862;4.320;2023-05-19T08:58:49;7.47;;;4.70;;
10761;SDS011;5433;50.862;4.320;2023-05-19T09:01:16;11.45;;;5.20;;
10761;SDS011;5433;50.862;4.320;2023-05-19T09:03:43;9.70;;;5.13;;
10761;SDS011;5433;50.862;4.320;2023-05-19T09:06:09;10.05;;;4.65;;
10761;SDS011;5433;50.862;4.320;2023-05-19T09:08:39;7.70;;;3.78;;
10761;SDS011;5433;50.862;4.320;2023-05-19T09:11:05;7.40;;;4.40;;
10761;SDS011;5433;50.862;4.320;2023-05-19T09:13:31;6.90;;;4.40;;
10761;SDS011;5433;50.862;4.320;2023-05-19T09:15:57;5.50;;;3.95;;
10761;SDS011;5433;50.862;4.320;2023-05-19T09:18:24;8.50;;;4.40;;
10761;SDS011;5433;50.862;4.320;2023-05-19T09:20:50;7.10;;;4.20;;
10761;SDS011;5433;50.862;4.320;2023-05-19T09:23:24;6.57;;;3.72;;
10761;SDS011;5433;50.862;4.320;2023-05-19T09:25:53;6.35;;;3.60;;
10761;SDS011;5433;50.862;4.320;2023-05-19T09:28:26;6.55;;;3.58;;
10761;SDS011;5433;50.862;4.320;2023-05-19T09:31:03;8.65;;;4.05;;
10761;SDS011;5433;50.862;4.320;2023-05-19T09:33:31;7.90;;;3.83;;
10761;SDS011;5433;50.862;4.320;2023-05-19T09:35:57;8.80;;;4.00;;
10761;SDS011;5433;50.862;4.320;2023-05-19T09:38:24;7.30;;;4.18;;
10761;SDS011;5433;50.862;4.320;2023-05-19T09:40:51;7.30;;;4.00;;
10761;SDS011;5433;50.862;4.320;2023-05-19T09:43:17;6.03;;;4.10;;
10761;SDS011;5433;50.862;4.320;2023-05-19T09:45:43;8.32;;;3.80;;
10761;SDS011;5433;50.862;4.320;2023-05-19T09:48:09;7.43;;;3.70;;
10761;SDS011;5433;50.862;4.320;2023-05-19T09:50:36;9.20;;;3.75;;
10761;SDS011;5433;50.862;4.320;2023-05-19T09:53:02;6.97;;;3.88;;
10761;SDS011;5433;50.862;4.320;2023-05-19T09:55:28;6.97;;;4.13;;
10761;SDS011;5433;50.862;4.320;2023-05-19T09:57:56;7.30;;;3.78;;
10761;SDS011;5433;50.862;4.320;2023-05-19T10:00:25;8.07;;;3.67;;
10761;SDS011;5433;50.862;4.320;2023-05-19T10:02:51;8.77;;;3.55;;
10761;SDS011;5433;50.862;4.320;2023-05-19T10:05:18;7.47;;;3.40;;
10761;SDS011;5433;50.862;4.320;2023-05-19T10:07:51;8.25;;;3.10;;
10761;SDS011;5433;50.862;4.320;2023-05-19T10:10:18;5.68;;;3.08;;
10761;SDS011;5433;50.862;4.320;2023-05-19T10:12:45;5.28;;;2.83;;
10761;SDS011;5433;50.862;4.320;2023-05-19T10:15:12;11.65;;;3.25;;
10761;SDS011;5433;50.862;4.320;2023-05-19T10:17:38;6.90;;;2.58;;
10761;SDS011;5433;50.862;4.320;2023-05-19T10:20:14;7.10;;;2.80;;
10761;SDS011;5433;50.862;4.320;2023-05-19T10:22:41;6.70;;;2.85;;
10761;SDS011;5433;50.862;4.320;2023-05-19T10:25:08;9.65;;;3.60;;
10761;SDS011;5433;50.862;4.320;2023-05-19T10:27:35;5.13;;;3.30;;
10761;SDS011;5433;50.862;4.320;2023-05-19T10:30:06;8.63;;;3.38;;
10761;SDS011;5433;50.862;4.320;2023-05-19T10:32:33;6.57;;;2.97;;
10761;SDS011;5433;50.862;4.320;2023-05-19T10:37:49;11.20;;;2.90;;
10761;SDS011;5433;50.862;4.320;2023-05-19T10:40:27;6.05;;;3.17;;
10761;SDS011;5433;50.862;4.320;2023-05-19T10:45:40;5.32;;;3.50;;
10761;SDS011;5433;50.862;4.320;2023-05-19T10:48:12;7.45;;;3.10;;
10761;SDS011;5433;50.862;4.320;2023-05-19T10:50:39;7.88;;;3.00;;
10761;SDS011;5433;50.862;4.320;2023-05-19T10:53:05;4.47;;;2.78;;
10761;SDS011;5433;50.862;4.320;2023-05-19T10:55:51;6.75;;;2.88;;
10761;SDS011;5433;50.862;4.320;2023-05-19T11:01:11;4.07;;;2.97;;
10761;SDS011;5433;50.862;4.320;2023-05-19T11:03:45;5.63;;;2.83;;
10761;SDS011;5433;50.862;4.320;2023-05-19T11:06:23;5.75;;;2.88;;
10761;SDS011;5433;50.862;4.320;2023-05-19T11:11:23;6.10;;;2.95;;
10761;SDS011;5433;50.862;4.320;2023-05-19T11:13:53;4.57;;;3.03;;
10761;SDS011;5433;50.862;4.320;2023-05-19T11:16:32;5.50;;;3.00;;
10761;SDS011;5433;50.862;4.320;2023-05-19T11:18:59;6.63;;;3.15;;
10761;SDS011;5433;50.862;4.320;2023-05-19T11:21:41;4.88;;;2.90;;
10761;SDS011;5433;50.862;4.320;2023-05-19T11:24:08;7.10;;;3.40;;
10761;SDS011;5433;50.862;4.320;2023-05-19T11:26:41;7.00;;;3.20;;
10761;SDS011;5433;50.862;4.320;2023-05-19T11:29:07;7.55;;;3.38;;
10761;SDS011;5433;50.862;4.320;2023-05-19T11:31:34;7.18;;;3.90;;
10761;SDS011;5433;50.862;4.320;2023-05-19T11:34:00;4.88;;;3.50;;
10761;SDS011;5433;50.862;4.320;2023-05-19T11:36:29;7.63;;;3.40;;
10761;SDS011;5433;50.862;4.320;2023-05-19T11:38:55;5.20;;;3.60;;
10761;SDS011;5433;50.862;4.320;2023-05-19T11:41:23;6.10;;;3.42;;
10761;SDS011;5433;50.862;4.320;2023-05-19T11:43:52;5.85;;;3.22;;
10761;SDS011;5433;50.862;4.320;2023-05-19T11:46:18;7.30;;;3.58;;
10761;SDS011;5433;50.862;4.320;2023-05-19T11:48:45;6.05;;;3.30;;
10761;SDS011;5433;50.862;4.320;2023-05-19T11:51:12;8.50;;;3.38;;
10761;SDS011;5433;50.862;4.320;2023-05-19T11:53:38;6.55;;;3.75;;
10761;SDS011;5433;50.862;4.320;2023-05-19T11:56:04;6.70;;;3.35;;
10761;SDS011;5433;50.862;4.320;2023-05-19T11:58:30;5.07;;;3.40;;
10761;SDS011;5433;50.862;4.320;2023-05-19T12:01:02;12.63;;;3.88;;
10761;SDS011;5433;50.862;4.320;2023-05-19T12:03:28;12.73;;;3.95;;
10761;SDS011;5433;50.862;4.320;2023-05-19T12:05:56;5.00;;;3.38;;
10761;SDS011;5433;50.862;4.320;2023-05-19T12:08:23;5.68;;;3.50;;
10761;SDS011;5433;50.862;4.320;2023-05-19T12:10:51;5.95;;;3.60;;
10761;SDS011;5433;50.862;4.320;2023-05-19T12:13:17;6.07;;;3.38;;
10761;SDS011;5433;50.862;4.320;2023-05-19T12:15:43;7.53;;;4.00;;
10761;SDS011;5433;50.862;4.320;2023-05-19T12:18:09;7.13;;;4.07;;
10761;SDS011;5433;50.862;4.320;2023-05-19T12:20:36;8.20;;;3.40;;
10761;SDS011;5433;50.862;4.320;2023-05-19T12:23:02;6.22;;;3.95;;
10761;SDS011;5433;50.862;4.320;2023-05-19T12:25:28;6.90;;;3.20;;
10761;SDS011;5433;50.862;4.320;2023-05-19T12:28:00;8.05;;;3.25;;
10761;SDS011;5433;50.862;4.320;2023-05-19T12:30:27;7.68;;;3.42;;
10761;SDS011;5433;50.862;4.320;2023-05-19T12:32:54;4.82;;;3.17;;
10761;SDS011;5433;50.862;4.320;2023-05-19T12:35:27;5.07;;;3.45;;
10761;SDS011;5433;50.862;4.320;2023-05-19T12:37:53;6.63;;;4.07;;
10761;SDS011;5433;50.862;4.320;2023-05-19T12:40:19;7.53;;;3.60;;
10761;SDS011;5433;50.862;4.320;2023-05-19T12:42:45;5.15;;;3.70;;
10761;SDS011;5433;50.862;4.320;2023-05-19T12:45:12;5.68;;;3.42;;
10761;SDS011;5433;50.862;4.320;2023-05-19T12:47:39;5.75;;;2.92;;
10761;SDS011;5433;50.862;4.320;2023-05-19T12:50:05;5.53;;;2.88;;
10761;SDS011;5433;50.862;4.320;2023-05-19T12:52:53;6.60;;;3.33;;
10761;SDS011;5433;50.862;4.320;2023-05-19T12:55:19;6.32;;;3.25;;
10761;SDS011;5433;50.862;4.320;2023-05-19T12:57:47;5.30;;;2.70;;
10761;SDS011;5433;50.862;4.320;2023-05-19T13:00:16;6.10;;;3.40;;
10761;SDS011;5433;50.862;4.320;2023-05-19T13:02:55;5.60;;;3.20;;
10761;SDS011;5433;50.862;4.320;2023-05-19T13:05:21;6.40;;;3.17;;
10761;SDS011;5433;50.862;4.320;2023-05-19T13:07:57;7.72;;;2.92;;
10761;SDS011;5433;50.862;4.320;2023-05-19T13:10:24;4.85;;;2.70;;
10761;SDS011;5433;50.862;4.320;2023-05-19T13:12:52;5.00;;;2.90;;
10761;SDS011;5433;50.862;4.320;2023-05-19T13:15:18;4.78;;;2.53;;
10761;SDS011;5433;50.862;4.320;2023-05-19T13:17:44;4.97;;;2.50;;
10761;SDS011;5433;50.862;4.320;2023-05-19T13:20:11;3.85;;;2.70;;
10761;SDS011;5433;50.862;4.320;2023-05-19T13:22:37;5.47;;;2.78;;
10761;SDS011;5433;50.862;4.320;2023-05-19T13:25:07;5.82;;;2.70;;
10761;SDS011;5433;50.862;4.320;2023-05-19T13:27:33;4.43;;;2.20;;
10761;SDS011;5433;50.862;4.320;2023-05-19T13:30:00;8.70;;;2.75;;
10761;SDS011;5433;50.862;4.320;2023-05-19T13:32:26;6.53;;;2.67;;
10761;SDS011;5433;50.862;4.320;2023-05-19T13:34:52;6.85;;;2.80;;
10761;SDS011;5433;50.862;4.320;2023-05-19T13:37:18;5.25;;;2.90;;
10761;SDS011;5433;50.862;4.320;2023-05-19T13:39:44;4.60;;;2.53;;
10761;SDS011;5433;50.862;4.320;2023-05-19T13:42:10;5.32;;;2.70;;
10761;SDS011;5433;50.862;4.320;2023-05-19T13:44:36;5.68;;;2.80;;
10761;SDS011;5433;50.862;4.320;2023-05-19T13:47:02;5.57;;;2.60;;
10761;SDS011;5433;50.862;4.320;2023-05-19T13:49:28;5.28;;;2.47;;
10761;SDS011;5433;50.862;4.320;2023-05-19T13:51:55;5.53;;;2.40;;
10761;SDS011;5433;50.862;4.320;2023-05-19T13:54:24;5.68;;;2.72;;
10761;SDS011;5433;50.862;4.320;2023-05-19T13:56:50;6.88;;;2.80;;
10761;SDS011;5433;50.862;4.320;2023-05-19T13:59:16;5.10;;;2.67;;
10761;SDS011;5433;50.862;4.320;2023-05-19T14:01:42;4.13;;;2.40;;
10761;SDS011;5433;50.862;4.320;2023-05-19T14:04:09;4.22;;;3.13;;
10761;SDS011;5433;50.862;4.320;2023-05-19T14:06:35;4.25;;;2.53;;
10761;SDS011;5433;50.862;4.320;2023-05-19T14:09:02;5.03;;;2.70;;
10761;SDS011;5433;50.862;4.320;2023-05-19T14:11:28;4.45;;;2.50;;
10761;SDS011;5433;50.862;4.320;2023-05-19T14:13:54;4.63;;;2.42;;
10761;SDS011;5433;50.862;4.320;2023-05-19T14:16:20;5.38;;;2.25;;
10761;SDS011;5433;50.862;4.320;2023-05-19T14:18:46;6.18;;;2.50;;
10761;SDS011;5433;50.862;4.320;2023-05-19T14:21:13;4.63;;;2.33;;
10761;SDS011;5433;50.862;4.320;2023-05-19T14:23:39;6.15;;;2.67;;
10761;SDS011;5433;50.862;4.320;2023-05-19T14:26:06;5.07;;;2.70;;
10761;SDS011;5433;50.862;4.320;2023-05-19T14:28:32;4.63;;;2.50;;
10761;SDS011;5433;50.862;4.320;2023-05-19T14:30:58;6.65;;;2.60;;
10761;SDS011;5433;50.862;4.320;2023-05-19T14:33:24;5.93;;;3.05;;
10761;SDS011;5433;50.862;4.320;2023-05-19T14:35:50;5.30;;;2.50;;
10761;SDS011;5433;50.862;4.320;2023-05-19T14:38:16;3.72;;;2.45;;
10761;SDS011;5433;50.862;4.320;2023-05-19T14:40:43;6.38;;;2.70;;
10761;SDS011;5433;50.862;4.320;2023-05-19T14:43:09;5.07;;;2.75;;
10761;SDS011;5433;50.862;4.320;2023-05-19T14:45:37;5.90;;;2.78;;
10761;SDS011;5433;50.862;4.320;2023-05-19T14:48:03;4.88;;;2.80;;
10761;SDS011;5433;50.862;4.320;2023-05-19T14:50:29;6.20;;;3.00;;
10761;SDS011;5433;50.862;4.320;2023-05-19T14:52:56;5.15;;;2.83;;
10761;SDS011;5433;50.862;4.320;2023-05-19T14:55:22;5.63;;;2.30;;
10761;SDS011;5433;50.862;4.320;2023-05-19T14:57:48;6.40;;;2.47;;
10761;SDS011;5433;50.862;4.320;2023-05-19T15:00:14;6.20;;;2.58;;
10761;SDS011;5433;50.862;4.320;2023-05-19T15:02:41;4.07;;;2.58;;
10761;SDS011;5433;50.862;4.320;2023-05-19T15:05:07;4.97;;;2.53;;
10761;SDS011;5433;50.862;4.320;2023-05-19T15:07:34;5.78;;;2.72;;
10761;SDS011;5433;50.862;4.320;2023-05-19T15:10:00;4.10;;;2.30;;
10761;SDS011;5433;50.862;4.320;2023-05-19T15:12:26;4.68;;;2.00;;
10761;SDS011;5433;50.862;4.320;2023-05-19T15:14:52;5.43;;;2.40;;
10761;SDS011;5433;50.862;4.320;2023-05-19T15:17:18;3.65;;;2.30;;
10761;SDS011;5433;50.862;4.320;2023-05-19T15:19:44;4.28;;;2.30;;
10761;SDS011;5433;50.862;4.320;2023-05-19T15:22:10;5.93;;;2.45;;
10761;SDS011;5433;50.862;4.320;2023-05-19T15:24:36;4.57;;;2.47;;
10761;SDS011;5433;50.862;4.320;2023-05-19T15:27:03;5.15;;;2.20;;
10761;SDS011;5433;50.862;4.320;2023-05-19T15:29:29;4.45;;;2.10;;
10761;SDS011;5433;50.862;4.320;2023-05-19T15:31:55;4.32;;;2.10;;
10761;SDS011;5433;50.862;4.320;2023-05-19T15:34:22;4.32;;;2.60;;
10761;SDS011;5433;50.862;4.320;2023-05-19T15:36:48;5.35;;;2.75;;
10761;SDS011;5433;50.862;4.320;2023-05-19T15:39:14;6.07;;;2.90;;